Unalaska, AK (99685)

4:24 AM AKDT on June 25, 2017 (GMT -0800)
Unalaska | | Change Station

Elev 20 ft 53.90 °N, 166.54 °W | Updated 28 minutes ago

Rain
Rain
49 °F
Feels Like 49 °F
N
24
Wind Variable Wind from SE
Gusts 32 mph

Today
High -- | Low -- °F
--% Chance of Precip.
Yesterday
High -- | Low -- °F
Precip. -- in
Pressure 29.73 in
Visibility 8.0 miles
Clouds Overcast 2100 ft
Dew Point 44 °F
Humidity 83%
Rainfall 0.04 in
Snow Depth Not available.
6:35 AM 11:41 PM
Waxing Crescent, 3% visible
METAR PADU 251156Z AUTO 14021G28KT 8SM -RA OVC021 09/07 A2972 RMK AO2 PK WND 13032/1136 SLP066 P0001 60005 70018 T00940067 10100 20094 58040
Pressure 29.73 in
Visibility 8.0 miles
Clouds Overcast 2100 ft
Dew Point 44 °F
Humidity 83%
Rainfall 0.04 in
Snow Depth Not available.
6:35 AM 11:41 PM
Waxing Crescent, 3% visible
METAR PADU 251156Z AUTO 14021G28KT 8SM -RA OVC021 09/07 A2972 RMK AO2 PK WND 13032/1136 SLP066 P0001 60005 70018 T00940067 10100 20094 58040

Get Severe Weather Alerts

Thanks for signing up!

Be on the lookout for a verification email in your inbox.

You'll start receiving the daily forecast at 6 AM.

×

10-Day Weather Forecast

Almanac

Astronomy

Jun. 25, 2017 Rise Set
Actual Time
Civil Twilight
Nautical Twilight
Astronomical Twilight
Moon
Length of Visible Light
Length of Day
Tomorrow will be .
, % of the Moon is Illuminated

Today's Extremes

State Highs State Lows

Community

WunderPhotos

Category 6

Welcome to Category 6. This is the collective home for Weather Underground's featured writeups by Dr. Jeff Masters (right), Bob Henson (left), Chris Burt, and other regular contributors.

Nearby

Air Quality

  Air Quality AQ Index Pollutant
Not available.

Snow Depth

Station Depth Elevation

Earthquake Activity

City Distance Mag. Time & Date
Minimum magnitude displayed is 2.5.

Coastal Water Temperatures

Place Temperature

Stations

Nearby Weather Stations

Station Location Temp. Windchill Dew Point Humidity Wind Precip. Elev Updated Type
                   

Watches & Warnings

There are currently no watches in effect.